METAR AND TAF INFORMATION
METAR FOR LESO
ADDS - METARS form results

(0508 UTC 18 August 2019)
Data provider http://aviationweather.gov/metar/data/
 
METAR text: LESO 180500Z 19003KT 160V220 CAVOK 18/17 Q1009
Conditions at: LESO (SAN SEBASTIAN/FU, ES) observed 0500 UTC 18 August 2019
Temperature: 18.0°C (64°F)
Dewpoint: 17.0°C (63°F) [RH = 94%]
Pressure (altimeter): 29.79 inches Hg (1009.0 mb)
Winds: from the S (190 degrees) at 3 MPH (3 knots; 1.5 m/s)
Visibility: 6 or more miles (10+ km)
Ceiling: ceiling and visibility are OK
Clouds: unknown
Weather: no significant weather observed at this time

METAR text: LESO 180430Z 08003KT 320V120 CAVOK 20/17 Q1009
Conditions at: LESO (SAN SEBASTIAN/FU, ES) observed 0430 UTC 18 August 2019
Temperature: 20.0°C (68°F)
Dewpoint: 17.0°C (63°F) [RH = 83%]
Pressure (altimeter): 29.79 inches Hg (1009.0 mb)
Winds: from the E (80 degrees) at 3 MPH (3 knots; 1.5 m/s)
Visibility: 6 or more miles (10+ km)
Ceiling: ceiling and visibility are OK
Clouds: unknown
Weather: no significant weather observed at this time

Forecast for: LESO (SAN SEBASTIAN/FU, ES)
Text: TAF LESO 172300Z 1800/1824 VRB05KT CAVOK TX25/1814Z TN17/1806Z
Forecast period: 0000 to 1000 UTC 18 August 2019
Forecast type: FROM: standard forecast or significant change
Winds: variable direction winds at 6 MPH (5 knots; 2.6 m/s)
Visibility: 6 or more miles 10+ km)
Ceiling: unknown
Clouds: missing
Weather: no significant weather forecast for this period
Text: BECMG 1810/1813 33010KT
Forecast period: 1000 UTC 18 August 2019 to 0000 UTC 19 August 2019
Forecast type: BECOMING: Conditions expected to become as follows by 1300 UTC 18 August 2019
Winds: from the NNW (330 degrees) at 12 MPH (10 knots; 5.1 m/s)
Visibility: 6 or more miles 10+ km)
Ceiling: unknown
Clouds: missing
Weather: no significant weather forecast for this period
Text: TEMPO 1812/1821 3000 RADZ BKN010
Forecast period: 1200 to 2100 UTC 18 August 2019
Forecast type: TEMPORARY: The following changes expected for less than half the time period
Visibility: 1.86 miles (2.99 km)
Ceiling: 1000 feet AGL
Clouds: broken clouds at 1000 feet AGL
Weather: RA DZ  (moderate rain, moderate drizzle)

AIRPORT MAP

RUNWAY INFORMATION
Runway 04 Runway length 5755 ft Runway width 148 ft
Runway elevation 10 ft Runway displaced threshold 0 ft Runway heading 39
Runway 22 Runway length 5755 ft Runway width 148 ft
Runway elevation 15 ft Runway displaced threshold 0 ft Runway heading 219

AIRPORT FREQUENCIES
Type TWR Name SAN SEBAST Frequency 119.85 MHZ

AIRPORT NEAR NAVIGATION AIDS
Type NDB-DME Name San Sebastian Frequency 328 KHZ
Type VOR-DME Name San Sebastian Frequency 117900 KHZ